Meteo Giornale » Osservazioni meteo Turchia » Mardin
ore: 02:50 - Osservazioni Meteo Mardin
Lat. 37° 18' N Lon. 40° 44' E Alt. 1050 metri s.l.m.
23 °C
Sereno
Temp. 24 Ore
20 °C
34 °C
Nord
3.7 Km/h
Dew point 11 °C
Umidità 46 %
Visibilità 10 Km
Il sole sorge alle ore 05:47
Il sole tramonta alle ore 18:46
| Data e Ora | Cielo e Fenomeni | T °C | DP °C | Um. % | Pres. hPa | Vis. km | Vento km/h | |
|---|---|---|---|---|---|---|---|---|
| Oggi h: 02:50 | Sereno | 23 | 11 | 46 | 1009 | 10 | N 3.7 | |
| Oggi h: 01:50 | Sereno | 23 | 10 | 43 | 1009 | 10 | N 0 | |
| Oggi h: 00:50 | Sereno | 26 | 11 | 39 | 1009 | 10 | N 5.5 | |
| Ieri h: 23:50 | Sereno | 25 | 10 | 38 | 1010 | 10 | E/NE 7.4 | |
| Ieri h: 22:50 | Sereno | 27 | 11 | 36 | 1009 | 10 | NE 11.1 | |
| Ieri h: 21:50 | Sereno | 27 | 11 | 36 | 1009 | 10 | NE 9.3 | |
| Ieri h: 20:50 | Sereno | 29 | 13 | 37 | 1009 | 10 | N 3.7 | |
| Ieri h: 19:50 | Nuvoloso | 30 | 12 | 33 | 1009 | 10 | N 3.7 | |
| Ieri h: 18:50 | Nuvoloso | 31 | 12 | 31 | 1008 | 10 | N 5.5 | |
| Ieri h: 17:50 | Nuvoloso | 32 | 11 | 27 | 1008 | 10 | N 3.7 | |
| Ieri h: 16:50 | Nuvoloso | 34 | 12 | 26 | 1008 | 10 | N 5.5 | |
| Ieri h: 15:50 | Nuvoloso | 34 | 11 | 24 | 1008 | 10 | N 5.5 | |
| Ieri h: 14:50 | Nuvoloso | 33 | 11 | 26 | 1008 | 10 | S 11.1 | |
| Ieri h: 13:50 | Nuvoloso | 33 | 12 | 27 | 1008 | 10 | S 13 | |
| Ieri h: 12:50 | Nuvoloso | 32 | 12 | 29 | 1009 | 10 | SO 13 | |
| Ieri h: 11:50 | Nuvoloso | 31 | 14 | 35 | 1009 | 10 | S 13 | |
| Ieri h: 10:50 | Nuvoloso | 30 | 13 | 35 | 1009 | 10 | S/SE 11.1 | |
| Ieri h: 09:50 | Sereno | 29 | 12 | 35 | 1009 | 10 | E/SE 11.1 | |
| Ieri h: 08:50 | Sereno | 27 | 12 | 39 | 1009 | 10 | E/SE 9.3 | |
| Ieri h: 07:50 | Sereno | 24 | 13 | 50 | 1008 | 10 | E/NE 9.3 | |
| Ieri h: 06:50 | Sereno | 21 | 11 | 52 | 1008 | 10 | E/NE 7.4 | |
| Ieri h: 05:50 | Sereno | 20 | 11 | 56 | 1007 | 10 | E/NE 7.4 | |
| Ieri h: 04:50 | Sereno | 20 | 11 | 56 | 1007 | 10 | N 3.7 | |
| Ieri h: 03:50 | Sereno | 22 | 11 | 49 | 1007 | 10 | N 5.5 | |



